^^
Datos históricos de la estación: Murcia-Puente Tocinos
Diario Informe para Enero 19, 2019 Unidades:  Métrico    Ingés   Ambas
Diario Semanal Mensual Anual
  Máxima: Mínima: Promedio:
Temperatura: 14.7 °C 12.1 °C 13.3 °C
Punto de rocio: 13 °C 10.7 °C 11.8 °C
Humedad: 96% 77.6% 90%
Velocidad viento: 12.2km/h 0km/h 4km/h
Racha viento: 23.3km/h - -
Viento- - SO
Presión: 1015.1 hPa 1012.2 hPa -
Precipitación: 29.2 mm    
 
 
Tabla de datos para Enero 19, 2019
Hora Temperatura Punto de rocio Presión Viento Velocidad viento Racha viento Humedad Intensidad lluvia(por hora) Nubes
00:04 14.7 °C 10.8 °C 1012.7 hPa NNO 2.2 km/h 7.6 km/h 77.6% 0.0 mm
00:09 14.6 °C 10.8 °C 1012.7 hPa North 2.4 km/h 8 km/h 78% 0.0 mm
00:14 14.4 °C 10.8 °C 1012.7 hPa NNO 2.9 km/h 5.8 km/h 78.9% 0.0 mm
00:19 14.3 °C 10.8 °C 1012.8 hPa NNO 2.9 km/h 6.4 km/h 79.4% 0.0 mm
00:24 14.2 °C 10.8 °C 1012.8 hPa NNO 2.9 km/h 7.4 km/h 80% 0.0 mm
00:29 14.2 °C 10.8 °C 1012.8 hPa NNO 2.7 km/h 8 km/h 80% 0.0 mm
00:34 14.1 °C 10.7 °C 1012.8 hPa NO 2.2 km/h 7.4 km/h 80% 0.0 mm
00:39 14.1 °C 10.7 °C 1012.7 hPa NO 2.6 km/h 8 km/h 80% 0.0 mm
00:44 14.1 °C 10.8 °C 1012.7 hPa NO 3.2 km/h 8 km/h 80.4% 0.0 mm
00:49 14.1 °C 10.9 °C 1012.8 hPa NO 3.2 km/h 8 km/h 81% 0.0 mm
00:54 14.1 °C 10.9 °C 1012.8 hPa ONO 3.2 km/h 8 km/h 81% 0.0 mm
00:59 14.2 °C 11 °C 1012.8 hPa North 3.5 km/h 8.4 km/h 81% 0.0 mm
01:04 14.2 °C 11 °C 1012.8 hPa NNE 3.9 km/h 8 km/h 81% 0.0 mm
01:09 14.2 °C 11 °C 1012.6 hPa NNE 3.5 km/h 8 km/h 81% 0.0 mm
01:14 14.2 °C 11 °C 1012.6 hPa NNE 2.9 km/h 3.2 km/h 81% 0.0 mm
01:19 14.2 °C 11 °C 1012.7 hPa NNE 1.8 km/h 4.7 km/h 81% 0.0 mm
01:24 14.2 °C 11 °C 1012.7 hPa Calm   4.8 km/h 81% 0.0 mm
01:29 14.2 °C 11 °C 1012.7 hPa Calm   3.2 km/h 81% 0.0 mm
01:34 14.3 °C 11 °C 1012.9 hPa Calm   4.7 km/h 80.8% 0.0 mm
01:39 14.2 °C 10.8 °C 1012.9 hPa Calm   7.4 km/h 80% 0.0 mm
01:44 14.2 °C 11 °C 1012.9 hPa Calm   8 km/h 80.9% 0.0 mm
01:49 14.1 °C 10.9 °C 1013.0 hPa NNE 1.5 km/h 8 km/h 81% 0.0 mm
01:54 14.1 °C 10.9 °C 1013.0 hPa NNE 3.9 km/h 7.4 km/h 81% 0.0 mm
01:59 13.9 °C 10.7 °C 1013.0 hPa NNE 3.9 km/h 8 km/h 81% 0.0 mm
02:04 13.9 °C 10.9 °C 1013.0 hPa NNE 3.9 km/h 6.4 km/h 82% 0.0 mm
02:09 13.9 °C 10.9 °C 1012.8 hPa NNE 2.4 km/h   82% 0.0 mm
02:14 13.9 °C 10.9 °C 1012.8 hPa Calm     82% 0.0 mm
02:19 13.9 °C 10.9 °C 1012.9 hPa Calm     82% 0.0 mm
02:24 13.9 °C 10.9 °C 1012.9 hPa Calm     82% 0.0 mm
02:29 14 °C 10.9 °C 1012.9 hPa ESE 0.8 km/h 7.4 km/h 81.7% 0.0 mm
02:34 14 °C 10.7 °C 1013.1 hPa ESE 2.2 km/h 8 km/h 81% 0.0 mm
02:39 13.9 °C 10.7 °C 1013.1 hPa ESE 1.4 km/h 3.9 km/h 81% 0.0 mm
02:44 13.9 °C 10.7 °C 1013.1 hPa Calm   3.7 km/h 81% 0.0 mm
02:49 14 °C 10.7 °C 1013.1 hPa Calm   3.2 km/h 81% 0.0 mm
02:54 14 °C 10.7 °C 1013.0 hPa Calm   3.9 km/h 81% 0.0 mm
02:59 14 °C 10.8 °C 1013.0 hPa Calm   3.9 km/h 81% 0.0 mm
03:04 14.1 °C 10.9 °C 1013.0 hPa Calm   5.6 km/h 81% 0.0 mm
03:09 14 °C 10.8 °C 1012.6 hPa Calm   4.8 km/h 81% 0.0 mm
03:14 13.9 °C 10.8 °C 1012.6 hPa Calm   4.7 km/h 81.5% 0.0 mm
03:19 13.9 °C 10.9 °C 1012.6 hPa NNO 0.8 km/h 7.4 km/h 82% 0.0 mm
03:24 13.8 °C 10.8 °C 1012.6 hPa NNO 2.2 km/h 8 km/h 82% 0.0 mm
03:29 13.7 °C 10.8 °C 1012.6 hPa NO 2.6 km/h 8 km/h 82.6% 0.0 mm
03:34 13.7 °C 10.8 °C 1012.7 hPa NO 3.2 km/h 8 km/h 83% 0.0 mm
03:39 13.6 °C 10.9 °C 1012.7 hPa NO 3.2 km/h 8 km/h 83.9% 0.0 mm
03:44 13.6 °C 10.9 °C 1012.7 hPa North 3.2 km/h 7.4 km/h 84% 0.0 mm
03:49 13.5 °C 11 °C 1012.7 hPa NNE 3.2 km/h 8 km/h 84.7% 0.0 mm
03:54 13.5 °C 11 °C 1012.5 hPa NNE 3.2 km/h 4.8 km/h 85% 0.0 mm
03:59 13.5 °C 11 °C 1012.5 hPa NNE 1.8 km/h 5.6 km/h 85% 0.0 mm
04:04 13.5 °C 11.2 °C 1012.5 hPa Calm   7.4 km/h 86% 0.3 mm
04:09 13.5 °C 11.2 °C 1012.4 hPa NE 1.4 km/h 8.4 km/h 86% 0.3 mm
04:14 13.4 °C 11.1 °C 1012.4 hPa NE 3.9 km/h 11.1 km/h 86% 0.3 mm
04:19 13.3 °C 11.1 °C 1012.5 hPa NNE 4.8 km/h 11.3 km/h 86.4% 0.3 mm
04:24 13.2 °C 11.1 °C 1012.5 hPa NNO 6.5 km/h 9.7 km/h 87% 0.3 mm
04:29 13.2 °C 11.2 °C 1012.5 hPa NNO 5.5 km/h 8 km/h 87.7% 0.3 mm
04:34 13.2 °C 11.3 °C 1012.5 hPa NNO 3.9 km/h 8 km/h 88% 0.3 mm
04:39 13.2 °C 11.3 °C 1012.3 hPa NNO 3.9 km/h 8.4 km/h 88.3% 0.3 mm
04:44 13.2 °C 11.4 °C 1012.3 hPa NNO 3.9 km/h 8 km/h 89% 0.3 mm
04:49 13.2 °C 11.4 °C 1012.5 hPa NNO 2.5 km/h   89% 0.3 mm
04:54 13.2 °C 11.5 °C 1012.5 hPa Calm     89.2% 0.8 mm
04:59 13.2 °C 11.6 °C 1012.5 hPa Calm     90% 0.8 mm
05:04 13.2 °C 11.6 °C 1012.5 hPa Calm     90% 1.0 mm
05:09 13.2 °C 11.6 °C 1012.5 hPa Calm     90% 1.0 mm
05:14 13.1 °C 11.5 °C 1012.5 hPa Calm     90% 1.0 mm
05:19 13.1 °C 11.5 °C 1012.6 hPa Calm     90% 1.2 mm
05:24 13 °C 11.4 °C 1012.6 hPa Calm   7.4 km/h 90% 1.2 mm
05:29 13.1 °C 11.6 °C 1012.6 hPa NE 1.1 km/h 8 km/h 90.8% 1.2 mm
05:34 13.1 °C 11.7 °C 1012.6 hPa NE 2.9 km/h 8 km/h 91% 1.7 mm
05:39 13.1 °C 11.7 °C 1012.5 hPa SE 2.9 km/h 7.4 km/h 91% 1.7 mm
05:44 13 °C 11.6 °C 1012.5 hPa SO 2.9 km/h 8 km/h 91% 2.3 mm
05:49 13 °C 11.6 °C 1012.5 hPa ONO 2.9 km/h 8 km/h 91% 2.3 mm
05:54 13 °C 11.6 °C 1012.5 hPa ONO 2.9 km/h 7.6 km/h 91% 2.5 mm
05:59 12.9 °C 11.5 °C 1012.5 hPa ONO 3 km/h 8 km/h 91.2% 3.0 mm
06:04 12.9 °C 11.6 °C 1012.5 hPa ONO 3.2 km/h 6.4 km/h 92% 2.8 mm
06:09 12.9 °C 11.6 °C 1012.5 hPa ONO 2.9 km/h 5.6 km/h 92% 2.5 mm
06:14 12.9 °C 11.6 °C 1012.5 hPa NO 2.2 km/h 7.4 km/h 92% 3.1 mm
06:19 12.9 °C 11.6 °C 1012.5 hPa NO 2.8 km/h 8 km/h 92.2% 3.1 mm
06:24 12.9 °C 11.8 °C 1012.5 hPa NO 3.9 km/h 6.4 km/h 93% 2.9 mm
06:29 12.9 °C 11.8 °C 1012.5 hPa NO 3.3 km/h 5.6 km/h 93% 2.9 mm
06:34 12.9 °C 11.8 °C 1012.5 hPa NO 2.2 km/h 7.4 km/h 93% 3.1 mm
06:39 12.8 °C 11.8 °C 1012.2 hPa NNO 2.6 km/h 8 km/h 93% 2.6 mm
06:44 12.8 °C 11.7 °C 1012.2 hPa NNO 3.2 km/h 8 km/h 93% 2.6 mm
06:49 12.8 °C 11.7 °C 1012.3 hPa North 3.2 km/h 8 km/h 93% 2.3 mm
06:54 12.8 °C 11.7 °C 1012.3 hPa Este 3.2 km/h 10 km/h 93.2% 2.3 mm
06:59 12.9 °C 11.9 °C 1012.3 hPa ESE 3.9 km/h 9.7 km/h 94% 1.8 mm
07:04 12.9 °C 11.9 °C 1012.6 hPa SE 4.6 km/h 9.5 km/h 94% 1.8 mm
07:09 12.9 °C 11.9 °C 1012.6 hPa SE 4.1 km/h 9.7 km/h 94% 2.1 mm
07:14 12.9 °C 11.9 °C 1012.6 hPa SE 3.2 km/h 3.7 km/h 94% 1.5 mm
07:19 12.8 °C 11.9 °C 1012.6 hPa SE 2 km/h 5.6 km/h 94% 1.7 mm
07:24 12.8 °C 11.8 °C 1012.5 hPa Calm   5.6 km/h 94% 1.7 mm
07:29 12.8 °C 11.8 °C 1012.5 hPa SE 0.8 km/h 4.8 km/h 94% 2.0 mm
07:34 12.8 °C 11.8 °C 1012.9 hPa SE 2.2 km/h 4.7 km/h 94% 2.1 mm
07:39 12.7 °C 11.8 °C 1012.9 hPa SE 1.4 km/h 5 km/h 94% 2.1 mm
07:44 12.7 °C 11.8 °C 1012.9 hPa Calm   5.6 km/h 94% 2.1 mm
07:49 12.7 °C 11.9 °C 1013.1 hPa SE 0.8 km/h 4.8 km/h 94.5% 2.3 mm
07:54 12.8 °C 12 °C 1013.1 hPa SE 2.2 km/h 5.8 km/h 95% 2.3 mm
07:59 12.8 °C 11.9 °C 1013.1 hPa SE 2.5 km/h 7.6 km/h 94.2% 2.3 mm
08:04 12.8 °C 12 °C 1013.4 hPa SSE 2.9 km/h 8.4 km/h 94.9% 2.3 mm
08:09 12.8 °C 12 °C 1013.4 hPa SSE 3.6 km/h 8 km/h 95% 2.3 mm
08:14 12.8 °C 12 °C 1013.4 hPa SSE 4.7 km/h 8 km/h 95% 2.3 mm
08:19 12.8 °C 12 °C 1013.4 hPa Sur 4.8 km/h 8.7 km/h 95% 2.5 mm
08:24 12.8 °C 12 °C 1013.4 hPa SSO 5 km/h 11.1 km/h 95% 2.6 mm
08:29 12.8 °C 12.1 °C 1013.4 hPa SSO 5.4 km/h 11.3 km/h 95% 2.6 mm
08:34 12.9 °C 12.1 °C 1013.5 hPa SSO 6.4 km/h 9.7 km/h 95% 2.6 mm
08:39 12.9 °C 12.1 °C 1013.5 hPa SO 5.9 km/h 9.7 km/h 95% 2.5 mm
08:44 12.9 °C 12.1 °C 1013.5 hPa SO 5 km/h 9.7 km/h 95% 2.8 mm
08:49 12.9 °C 12.1 °C 1013.7 hPa SO 4.3 km/h 6.4 km/h 95% 3.0 mm
08:54 12.9 °C 12.1 °C 1013.7 hPa SSO 3.2 km/h 8 km/h 95% 3.1 mm
08:59 12.8 °C 12 °C 1013.7 hPa SSO 3.2 km/h 8 km/h 95% 2.8 mm
09:04 12.8 °C 12 °C 1013.9 hPa Sur 3.2 km/h 8.4 km/h 95% 2.8 mm
09:09 12.9 °C 12.1 °C 1013.9 hPa SSE 4.2 km/h 11.1 km/h 95% 2.8 mm
09:14 12.9 °C 12.1 °C 1013.9 hPa SSE 5.8 km/h 11.3 km/h 95% 2.9 mm
09:19 12.9 °C 12.1 °C 1014.0 hPa SSE 6.2 km/h 11.3 km/h 95% 2.9 mm
09:24 12.9 °C 12.1 °C 1014.0 hPa Sur 6.9 km/h 9.7 km/h 95% 2.8 mm
09:29 12.9 °C 12.1 °C 1014.0 hPa SSO 6.5 km/h 9.7 km/h 95% 2.6 mm
09:34 12.8 °C 12 °C 1014.1 hPa SSO 5.8 km/h 9.7 km/h 95% 2.3 mm
09:39 12.8 °C 12 °C 1014.1 hPa SSO 5.4 km/h 8 km/h 95% 2.3 mm
09:44 12.8 °C 12 °C 1014.1 hPa SSO 4.7 km/h 6.4 km/h 95% 2.1 mm
09:49 12.9 °C 12.2 °C 1014.2 hPa SSO 4 km/h 5.6 km/h 95.8% 2.0 mm
09:54 12.9 °C 12.3 °C 1014.2 hPa SSO 2.9 km/h 4.8 km/h 96% 2.1 mm
09:59 12.9 °C 12.3 °C 1014.2 hPa SSO 1.5 km/h 3.2 km/h 96% 2.0 mm
10:04 12.9 °C 12.3 °C 1014.3 hPa Calm   2.3 km/h 96% 2.0 mm
10:09 13 °C 12.4 °C 1014.3 hPa Calm   1.9 km/h 96% 1.8 mm
10:14 13.1 °C 12.5 °C 1014.3 hPa Calm   2.9 km/h 96% 1.8 mm
10:19 13.1 °C 12.5 °C 1014.3 hPa Calm   3.7 km/h 96% 2.0 mm
10:24 13.2 °C 12.6 °C 1014.2 hPa Calm   2.9 km/h 96% 1.8 mm
10:29 13.2 °C 12.6 °C 1014.2 hPa Calm   3.7 km/h 96% 1.8 mm
10:34 13.2 °C 12.6 °C 1014.3 hPa Calm   3.2 km/h 96% 2.1 mm
10:39 13.2 °C 12.6 °C 1014.3 hPa Calm   5 km/h 96% 1.8 mm
10:44 13.2 °C 12.6 °C 1014.3 hPa Calm   5.8 km/h 96% 1.8 mm
10:49 13.2 °C 12.5 °C 1014.6 hPa SSO 1 km/h 6.4 km/h 95.9% 1.8 mm
10:54 13.1 °C 12.5 °C 1014.6 hPa SSO 2.9 km/h 5.6 km/h 96% 2.0 mm
10:59 13.1 °C 12.5 °C 1014.6 hPa SSO 2.6 km/h 5.6 km/h 96% 2.0 mm
11:04 13.2 °C 12.5 °C 1014.6 hPa SSO 2.2 km/h 4.8 km/h 96% 2.1 mm
11:09 13.2 °C 12.6 °C 1014.6 hPa SSO 1.4 km/h 3.7 km/h 96% 2.1 mm
11:14 13.2 °C 12.6 °C 1014.6 hPa Calm   4.7 km/h 96% 1.8 mm
11:19 13.3 °C 12.6 °C 1014.6 hPa SSO 0.8 km/h 4.8 km/h 96% 1.8 mm
11:24 13.3 °C 12.6 °C 1014.5 hPa SSO 2.2 km/h 4.8 km/h 96% 1.8 mm
11:29 13.3 °C 12.6 °C 1014.5 hPa SSO 2.2 km/h 5 km/h 96% 1.8 mm
11:34 13.3 °C 12.7 °C 1014.6 hPa SSO 2.2 km/h 5.6 km/h 96% 2.0 mm
11:39 13.3 °C 12.6 °C 1014.6 hPa SSO 2.2 km/h 4.8 km/h 96% 1.7 mm
11:44 13.3 °C 12.7 °C 1014.6 hPa SSO 2.2 km/h   96% 2.1 mm
11:49 13.3 °C 12.7 °C 1014.6 hPa SSO 1.4 km/h   96% 2.1 mm
11:54 13.4 °C 12.8 °C 1014.6 hPa Calm     96% 2.3 mm
11:59 13.4 °C 12.8 °C 1014.6 hPa Calm     96% 1.8 mm
12:04 13.5 °C 12.9 °C 1014.6 hPa Calm     96% 1.8 mm
12:09 13.5 °C 12.9 °C 1014.5 hPa Calm   3.7 km/h 96% 1.8 mm
12:14 13.4 °C 12.8 °C 1014.5 hPa Calm   5 km/h 96% 2.0 mm
12:19 13.4 °C 12.8 °C 1014.5 hPa SSO 0.8 km/h 4.8 km/h 96% 2.0 mm
12:24 13.4 °C 12.8 °C 1014.5 hPa SSO 2.2 km/h 5.6 km/h 96% 1.8 mm
12:29 13.4 °C 12.6 °C 1014.5 hPa SSO 2.2 km/h 5.6 km/h 95.2% 2.1 mm
12:34 13.4 °C 12.8 °C 1014.5 hPa SSO 2.2 km/h 5.6 km/h 96% 1.8 mm
12:39 13.4 °C 12.8 °C 1014.5 hPa Sur 2.8 km/h 9.5 km/h 96% 1.8 mm
12:44 13.4 °C 12.8 °C 1014.5 hPa Sur 3.9 km/h 9.7 km/h 96% 1.8 mm
12:49 13.5 °C 12.9 °C 1014.5 hPa SSO 4.3 km/h 10 km/h 96% 1.5 mm
12:54 13.5 °C 12.9 °C 1014.4 hPa SO 5 km/h 10 km/h 96% 1.5 mm
12:59 13.4 °C 12.8 °C 1014.4 hPa SO 5.7 km/h 9.7 km/h 96% 1.6 mm
13:04 13.4 °C 12.8 °C 1014.4 hPa SO 6.5 km/h 9.7 km/h 96% 1.6 mm
13:09 13.4 °C 12.8 °C 1014.4 hPa SSO 6.5 km/h 10 km/h 96% 1.6 mm
13:14 13.4 °C 12.8 °C 1014.4 hPa SO 6.5 km/h 9.7 km/h 96% 1.3 mm
13:19 13.5 °C 12.9 °C 1014.4 hPa OSO 5.9 km/h 9.7 km/h 96% 1.1 mm
13:24 13.5 °C 12.7 °C 1014.3 hPa SO 5 km/h 8 km/h 95.2% 1.1 mm
13:29 13.5 °C 12.7 °C 1014.3 hPa OSO 4.6 km/h 8 km/h 95.1% 1.1 mm
13:34 13.6 °C 12.8 °C 1014.3 hPa OSO 3.9 km/h 6.4 km/h 95.3% 0.8 mm
13:39 13.6 °C 12.9 °C 1014.1 hPa OSO 3.9 km/h 7.4 km/h 95.2% 0.8 mm
13:44 13.7 °C 12.9 °C 1014.1 hPa OSO 3.9 km/h 8 km/h 95% 0.6 mm
13:49 13.8 °C 13 °C 1014.1 hPa OSO 3.3 km/h 6.9 km/h 95.4% 0.6 mm
13:54 13.8 °C 13 °C 1014.1 hPa SE 2.2 km/h 11.1 km/h 95% 0.6 mm
13:59 13.7 °C 12.9 °C 1014.1 hPa Sur 3.9 km/h 11.3 km/h 95% 0.3 mm
14:04 13.7 °C 12.9 °C 1014.1 hPa Sur 5.8 km/h 10 km/h 95% 0.3 mm
14:09 13.7 °C 12.8 °C 1013.9 hPa Sur 5.5 km/h 9.7 km/h 94.4% 0.2 mm
14:14 13.6 °C 12.7 °C 1013.9 hPa Sur 5 km/h 8 km/h 94% 0.2 mm
14:19 13.6 °C 12.7 °C 1013.9 hPa Sur 4.6 km/h 8 km/h 94% 0.2 mm
14:24 13.7 °C 12.9 °C 1013.6 hPa Oeste 3.9 km/h 7.4 km/h 94.8% 0.2 mm
14:29 13.8 °C 12.9 °C 1013.6 hPa NO 3.6 km/h 8 km/h 94.2% 0.2 mm
14:34 13.8 °C 12.8 °C 1013.6 hPa NO 3.2 km/h 8 km/h 94% 0.2 mm
14:39 13.8 °C 12.8 °C 1013.4 hPa NO 3.5 km/h 10.3 km/h 94% 0.2 mm
14:44 13.8 °C 12.8 °C 1013.4 hPa NNO 3.9 km/h 11.3 km/h 93.7% 0.2 mm
14:49 13.9 °C 12.8 °C 1013.5 hPa NNO 3.9 km/h 11.3 km/h 93.2% 0.2 mm
14:54 13.9 °C 12.8 °C 1013.5 hPa NNO 3.9 km/h 8.4 km/h 93% 0.2 mm
14:59 13.9 °C 12.8 °C 1013.5 hPa NNO 3.9 km/h 9.3 km/h 93% 0.2 mm
15:04 14 °C 12.9 °C 1013.5 hPa NNO 3.9 km/h 11.1 km/h 93% 0.2 mm
15:09 14 °C 12.9 °C 1013.4 hPa NE 4.3 km/h 11.3 km/h 93% 0.2 mm
15:14 14 °C 12.8 °C 1013.4 hPa North 5 km/h 11.3 km/h 92.4% 0.0 mm
15:19 13.8 °C 12.4 °C 1013.7 hPa NNO 5 km/h 11.9 km/h 91% 0.0 mm
15:24 13.8 °C 12.3 °C 1013.7 hPa NNO 5 km/h 11.3 km/h 91% 0.0 mm
15:29 13.8 °C 12.3 °C 1013.7 hPa NNO 5 km/h 9.7 km/h 91% 0.0 mm
15:34 13.8 °C 12.3 °C 1013.8 hPa NO 5 km/h 8.4 km/h 91% 0.0 mm
15:39 13.8 °C 12.3 °C 1013.8 hPa NNE 5 km/h 9.3 km/h 91% 0.3 mm
15:44 13.7 °C 12.1 °C 1013.8 hPa NNO 5 km/h 11.1 km/h 90.2% 0.3 mm
15:49 13.6 °C 12 °C 1013.8 hPa NNO 5.5 km/h 11.3 km/h 90% 0.3 mm
15:54 13.6 °C 12 °C 1013.7 hPa NNO 6.5 km/h 11.1 km/h 90.2% 0.3 mm
15:59 13.5 °C 11.8 °C 1013.7 hPa North 5.8 km/h 11.3 km/h 89.4% 0.3 mm
16:04 13.4 °C 11.6 °C 1013.7 hPa North 5 km/h 13.7 km/h 89% 0.3 mm
16:09 13.4 °C 11.6 °C 1013.6 hPa North 6 km/h 14.5 km/h 89.1% 0.3 mm
16:14 13.4 °C 11.8 °C 1013.6 hPa North 7.6 km/h 11.3 km/h 90% 0.3 mm
16:19 13.5 °C 11.9 °C 1013.6 hPa North 6.6 km/h 11.1 km/h 90% 0.3 mm
16:24 13.5 °C 11.9 °C 1013.4 hPa North 5 km/h 11.3 km/h 90% 0.3 mm
16:29 13.5 °C 11.9 °C 1013.4 hPa NNE 4.9 km/h 15.6 km/h 90% 0.3 mm
16:34 13.4 °C 11.8 °C 1013.4 hPa NNE 4.6 km/h 16.1 km/h 90% 0.5 mm
16:39 13.4 °C 11.9 °C 1013.3 hPa NNE 5 km/h 11.3 km/h 90.6% 0.5 mm
16:44 13.3 °C 11.8 °C 1013.3 hPa NE 5.8 km/h 9.5 km/h 90.4% 0.2 mm
16:49 13.3 °C 11.9 °C 1013.3 hPa NNE 5.8 km/h 11.1 km/h 91% 0.2 mm
16:54 13.2 °C 11.7 °C 1013.3 hPa NNE 5.8 km/h 14.8 km/h 90.5% 0.7 mm
16:59 13.1 °C 11.6 °C 1013.3 hPa NE 7.5 km/h 14.8 km/h 90.7% 0.7 mm
17:04 13.1 °C 11.7 °C 1013.5 hPa NNE 9.5 km/h 14.5 km/h 91% 0.7 mm
17:09 13.1 °C 11.7 °C 1013.5 hPa NE 8.1 km/h 10 km/h 91% 1.0 mm
17:14 13.2 °C 11.8 °C 1013.5 hPa NE 5.8 km/h 9.7 km/h 91.8% 1.0 mm
17:19 13.2 °C 11.8 °C 1013.5 hPa NNE 4.8 km/h 6.4 km/h 91.4% 1.0 mm
17:24 13.2 °C 11.8 °C 1013.4 hPa NNE 3.2 km/h 6.4 km/h 91.1% 1.0 mm
17:29 13.2 °C 11.8 °C 1013.4 hPa NNE 2.9 km/h 7.4 km/h 91.4% 1.0 mm
17:34 13.2 °C 11.8 °C 1013.5 hPa NNO 2.2 km/h 8.4 km/h 91.3% 1.0 mm
17:39 13.2 °C 11.9 °C 1013.5 hPa NO 3.2 km/h 11.1 km/h 91.5% 1.0 mm
17:44 13.3 °C 11.9 °C 1013.5 hPa NO 5 km/h 11.9 km/h 91.2% 0.8 mm
17:49 13.3 °C 12 °C 1013.5 hPa NNO 5.7 km/h 11.9 km/h 91.8% 0.8 mm
17:54 13.3 °C 12 °C 1013.5 hPa NNO 6.9 km/h 11.9 km/h 91.6% 0.8 mm
17:59 13.3 °C 11.9 °C 1013.5 hPa NO 6.9 km/h 12.2 km/h 91% 0.8 mm
18:04 13.2 °C 11.8 °C 1013.7 hPa NO 6.9 km/h 13 km/h 91% 0.3 mm
18:09 13.2 °C 11.6 °C 1013.7 hPa NO 6.5 km/h 12.9 km/h 90.1% 0.3 mm
18:14 13.2 °C 11.6 °C 1013.7 hPa NO 5.8 km/h 11.3 km/h 90% 0.3 mm
18:19 13.2 °C 11.6 °C 1013.8 hPa NO 5.8 km/h 15.6 km/h 90% 0.0 mm
18:24 13.2 °C 11.6 °C 1013.8 hPa ONO 5.8 km/h 16.1 km/h 89.8% 0.0 mm
18:29 13.2 °C 11.6 °C 1013.8 hPa NO 6.4 km/h 14.8 km/h 90% 0.0 mm
18:34 13.2 °C 11.6 °C 1013.8 hPa NO 7.6 km/h 14.8 km/h 90% 0.0 mm
18:39 13.2 °C 11.5 °C 1013.8 hPa NO 8 km/h 14.8 km/h 89.6% 0.0 mm
18:44 13.2 °C 11.6 °C 1013.8 hPa NO 8.7 km/h 14.5 km/h 90% 0.0 mm
18:49 13.2 °C 11.6 °C 1013.9 hPa NNO 8 km/h 11.9 km/h 89.7% 0.0 mm
18:54 13.2 °C 11.5 °C 1013.9 hPa NO 6.9 km/h 11.3 km/h 89.3% 0.0 mm
18:59 13.2 °C 11.4 °C 1013.9 hPa ONO 6.7 km/h 11.3 km/h 89% 0.0 mm
19:04 13.2 °C 11.4 °C 1014.0 hPa ONO 6.5 km/h 11.3 km/h 89% 0.0 mm
19:09 13.2 °C 11.4 °C 1014.0 hPa ONO 5.9 km/h 11.3 km/h 89% 0.0 mm
19:14 13.2 °C 11.4 °C 1014.0 hPa ONO 5 km/h 8 km/h 89% 0.0 mm
19:19 13.2 °C 11.4 °C 1014.1 hPa ONO 4.3 km/h 6.4 km/h 89% 0.0 mm
19:24 13.3 °C 11.5 °C 1014.1 hPa ONO 3.2 km/h 7.6 km/h 89% 0.0 mm
19:29 13.3 °C 11.4 °C 1014.1 hPa NO 3.2 km/h 9.3 km/h 88.6% 0.0 mm
19:34 13.3 °C 11.3 °C 1014.1 hPa Oeste 3.2 km/h 9.7 km/h 88% 0.0 mm
19:39 13.3 °C 11.3 °C 1014.0 hPa Oeste 3.7 km/h 8 km/h 88% 0.0 mm
19:44 13.3 °C 11.3 °C 1014.0 hPa OSO 4.7 km/h 8 km/h 88% 0.0 mm
19:49 13.3 °C 11.3 °C 1014.2 hPa OSO 4.4 km/h 8 km/h 88% 0.0 mm
19:54 13.3 °C 11.3 °C 1014.2 hPa OSO 3.9 km/h 8 km/h 87.9% 0.0 mm
19:59 13.4 °C 11.3 °C 1014.2 hPa OSO 4.2 km/h 8.4 km/h 87.1% 0.0 mm
20:04 13.4 °C 11.3 °C 1014.2 hPa SO 4.6 km/h 10 km/h 87% 0.0 mm
20:09 13.5 °C 11.3 °C 1014.2 hPa OSO 5.1 km/h 11.9 km/h 86.7% 0.0 mm
20:14 13.6 °C 11.4 °C 1014.2 hPa OSO 5.8 km/h 14.8 km/h 86.7% 0.0 mm
20:19 13.6 °C 11.5 °C 1014.2 hPa OSO 6 km/h 14.5 km/h 87% 0.0 mm
20:24 13.6 °C 11.5 °C 1014.1 hPa Oeste 6.5 km/h 12.9 km/h 87% 0.0 mm
20:29 13.6 °C 11.6 °C 1014.1 hPa Oeste 6.9 km/h 13 km/h 87.4% 0.0 mm
20:34 13.6 °C 11.7 °C 1014.1 hPa Oeste 7.6 km/h 12.9 km/h 88% 0.0 mm
20:39 13.6 °C 11.7 °C 1014.0 hPa Oeste 7.2 km/h 11.3 km/h 88% 0.0 mm
20:44 13.6 °C 11.8 °C 1014.0 hPa Oeste 6.5 km/h 11.3 km/h 88.8% 0.0 mm
20:49 13.6 °C 11.8 °C 1014.0 hPa Oeste 6.5 km/h 20.1 km/h 89% 0.0 mm
20:54 13.5 °C 11.7 °C 1013.7 hPa Oeste 6.5 km/h 20.9 km/h 89% 0.0 mm
20:59 13.4 °C 11.6 °C 1013.7 hPa Oeste 7.5 km/h 20.9 km/h 89% 0.0 mm
21:04 13.4 °C 11.6 °C 1013.9 hPa ONO 8.7 km/h 20.9 km/h 89% 0.0 mm
21:09 13.4 °C 11.6 °C 1013.9 hPa ONO 8.6 km/h 20.9 km/h 89% 0.0 mm
21:14 13.4 °C 11.6 °C 1013.9 hPa Oeste 8.4 km/h 14.5 km/h 89% 0.0 mm
21:19 13.4 °C 11.6 °C 1014.4 hPa Oeste 7.5 km/h 9.7 km/h 89% 0.0 mm
21:24 13.5 °C 11.7 °C 1014.4 hPa Oeste 5.8 km/h 8 km/h 89% 0.0 mm
21:29 13.5 °C 11.7 °C 1014.4 hPa Oeste 5.1 km/h 10 km/h 89% 0.0 mm
21:34 13.5 °C 11.7 °C 1014.5 hPa OSO 3.9 km/h 9.7 km/h 89% 0.0 mm
21:39 13.5 °C 11.7 °C 1014.5 hPa OSO 4.1 km/h 9.7 km/h 89% 0.0 mm
21:44 13.5 °C 11.7 °C 1014.5 hPa OSO 4.7 km/h 9.7 km/h 89% 0.0 mm
21:49 13.5 °C 11.8 °C 1014.5 hPa OSO 4.4 km/h 10 km/h 89% 0.2 mm
21:54 13.6 °C 11.8 °C 1014.5 hPa OSO 3.9 km/h 12.2 km/h 89% 0.2 mm
21:59 13.6 °C 11.8 °C 1014.5 hPa OSO 4.8 km/h 12.9 km/h 89% 0.2 mm
22:04 13.5 °C 11.7 °C 1014.9 hPa SO 5.8 km/h 9.7 km/h 89% 0.2 mm
22:09 13.5 °C 11.7 °C 1014.9 hPa SO 5.4 km/h 11.9 km/h 89% 0.2 mm
22:14 13.4 °C 11.6 °C 1014.9 hPa OSO 4.7 km/h 13 km/h 89% 0.2 mm
22:19 13.4 °C 11.6 °C 1014.9 hPa OSO 5.4 km/h 13 km/h 89% 0.2 mm
22:24 13.4 °C 11.6 °C 1014.9 hPa OSO 6.9 km/h 15.6 km/h 89% 0.2 mm
22:29 13.4 °C 11.6 °C 1014.9 hPa Oeste 7.2 km/h 17.2 km/h 89% 0.5 mm
22:34 13.3 °C 11.5 °C 1014.9 hPa Oeste 7.6 km/h 18.5 km/h 89% 0.5 mm
22:39 13.2 °C 11.4 °C 1014.9 hPa Oeste 8.2 km/h 19.3 km/h 89% 0.5 mm
22:44 13.1 °C 11.3 °C 1014.9 hPa Oeste 9.5 km/h 19.3 km/h 89.3% 0.5 mm
22:49 12.9 °C 11.3 °C 1015.1 hPa Oeste 9.2 km/h 14.8 km/h 90% 0.8 mm
22:54 12.9 °C 11.3 °C 1015.1 hPa Oeste 8.7 km/h 17.2 km/h 90% 1.3 mm
22:59 12.8 °C 11.2 °C 1015.1 hPa ONO 8.7 km/h 17.7 km/h 90% 2.1 mm
23:04 12.6 °C 11.2 °C 1015.1 hPa Oeste 8.7 km/h 20.9 km/h 91% 2.6 mm
23:09 12.5 °C 11 °C 1015.1 hPa ONO 9.8 km/h 22.2 km/h 91% 2.9 mm
23:14 12.4 °C 11.1 °C 1015.1 hPa ONO 11.9 km/h 22.5 km/h 92% 3.4 mm
23:19 12.3 °C 11.1 °C 1015.1 hPa ONO 11.3 km/h 19.3 km/h 92% 3.6 mm
23:24 12.2 °C 11 °C 1014.8 hPa Oeste 10.3 km/h 18.5 km/h 92.2% 4.1 mm
23:29 12.2 °C 11.1 °C 1014.8 hPa Oeste 10 km/h 19.3 km/h 93% 4.9 mm
23:34 12.2 °C 11.1 °C 1014.8 hPa OSO 9.5 km/h 16.7 km/h 93% 5.7 mm
23:39 12.2 °C 11 °C 1014.8 hPa OSO 9.5 km/h 18.5 km/h 93% 6.1 mm
23:44 12.1 °C 11 °C 1014.8 hPa OSO 9.5 km/h 23.3 km/h 93% 6.9 mm
23:49 12.1 °C 11 °C 1014.8 hPa OSO 10.4 km/h 22.5 km/h 93% 7.7 mm
23:54 12.1 °C 11.1 °C 1014.7 hPa SO 12.2 km/h 17.7 km/h 93.7% 8.4 mm
23:59 12.1 °C 11.2 °C 1014.7 hPa SO 10.6 km/h 16.1 km/h 94% 9.0 mm
Murcia-Puente Tocinos, España
Compliments of Weather Underground - 3 mb

La estación de MeteoMurcia.com, publica sus datos en los siguientes proyectos:

Weather Underground PWS IMURCIAP2 Meteoclimatic www.awekas.at

W3Counter
Web Analytics